Time;durP1;ratioP1;P1;durP2;ratioP2;P2;SDS_P1;SDS_P2;PMS_P1;PMS_P2;Temp;Humidity;BMP_temperature;BMP_pressure;BME280_temperature;BME280_humidity;BME280_pressure;Samples;Min_cycle;Max_cycle;Signal;HPM_P1;HPM_P2
2022/02/02 00:00:03;;;;;;;11.43;5.00;;;;;;;;;;5015351;28;20026;-69
2022/02/02 00:02:48;;;;;;;9.32;4.35;;;;;;;;;;5015109;28;20062;-69
2022/02/02 00:08:07;;;;;;;9.45;4.43;;;;;;;;;;5016670;28;20474;-69
2022/02/02 00:13:10;;;;;;;9.45;4.38;;;;;;;;;;5016332;28;20033;-69
2022/02/02 00:23:19;;;;;;;8.07;3.88;;;;;;;;;;5017035;28;20451;-69
2022/02/02 00:25:55;;;;;;;7.05;3.60;;;;;;;;;;5016110;28;20022;-69
2022/02/02 00:28:26;;;;;;;8.70;4.18;;;;;;;;;;5014786;28;20041;-69
2022/02/02 00:30:53;;;;;;;9.98;3.55;;;;;;;;;;5013825;28;20467;-69
2022/02/02 00:33:24;;;;;;;7.80;3.42;;;;;;;;;;5016219;28;20107;-69
2022/02/02 00:36:03;;;;;;;12.57;3.22;;;;;;;;;;4999303;28;20459;-69
2022/02/02 00:38:29;;;;;;;7.05;3.13;;;;;;;;;;5016470;28;20021;-69
2022/02/02 00:40:56;;;;;;;8.85;4.05;;;;;;;;;;5014619;28;20026;-69
2022/02/02 00:43:22;;;;;;;8.13;3.75;;;;;;;;;;5014552;28;20057;-69
2022/02/02 00:45:49;;;;;;;5.32;3.20;;;;;;;;;;5014511;28;20030;-69
2022/02/02 00:48:17;;;;;;;5.78;2.92;;;;;;;;;;5014375;28;20100;-69
2022/02/02 00:50:45;;;;;;;10.15;3.90;;;;;;;;;;5016298;28;20034;-69
2022/02/02 00:53:12;;;;;;;7.95;3.45;;;;;;;;;;5014365;28;20430;-67
2022/02/02 00:55:38;;;;;;;5.05;2.92;;;;;;;;;;5014330;28;20029;-68
2022/02/02 00:58:05;;;;;;;6.80;3.33;;;;;;;;;;5014286;28;20056;-69
2022/02/02 01:00:32;;;;;;;5.63;2.88;;;;;;;;;;5014855;28;20028;-69
2022/02/02 01:02:58;;;;;;;5.40;2.90;;;;;;;;;;5013964;28;20054;-69
2022/02/02 01:05:24;;;;;;;8.43;3.65;;;;;;;;;;5015965;28;20030;-69
2022/02/02 01:20:51;;;;;;;7.75;2.40;;;;;;;;;;5015978;28;20173;-69
2022/02/02 01:28:37;;;;;;;7.45;3.20;;;;;;;;;;5015157;28;20080;-69
2022/02/02 01:31:03;;;;;;;8.25;2.97;;;;;;;;;;5013653;28;20026;-68
2022/02/02 01:33:30;;;;;;;6.10;2.67;;;;;;;;;;5013641;28;20030;-69
2022/02/02 01:35:57;;;;;;;5.65;2.30;;;;;;;;;;5015365;28;20029;-69
2022/02/02 01:38:26;;;;;;;4.07;1.80;;;;;;;;;;5013525;28;20479;-69
2022/02/02 01:40:57;;;;;;;4.75;2.38;;;;;;;;;;5013554;28;20117;-67
2022/02/02 01:43:52;;;;;;;5.25;2.55;;;;;;;;;;5013311;28;20474;-68
2022/02/02 01:46:14;;;;;;;6.72;1.98;;;;;;;;;;5014332;28;20034;-69
2022/02/02 01:48:48;;;;;;;4.57;1.90;;;;;;;;;;5013340;28;20130;-69
2022/02/02 01:54:35;;;;;;;5.30;2.35;;;;;;;;;;5014573;28;19906;-68
2022/02/02 01:56:36;;;;;;;6.60;2.35;;;;;;;;;;5011353;28;20034;-68
2022/02/02 01:59:22;;;;;;;4.55;2.50;;;;;;;;;;5014427;28;20036;-69
2022/02/02 02:01:48;;;;;;;5.82;2.53;;;;;;;;;;5012954;28;20038;-69
2022/02/02 02:04:14;;;;;;;5.07;2.67;;;;;;;;;;5013100;28;20391;-69
2022/02/02 02:06:41;;;;;;;4.38;2.20;;;;;;;;;;5013030;28;20481;-69
2022/02/02 02:09:07;;;;;;;5.22;1.55;;;;;;;;;;5012955;28;20041;-69
2022/02/02 02:11:36;;;;;;;2.92;1.60;;;;;;;;;;5014271;28;20025;-69
2022/02/02 02:16:28;;;;;;;3.13;1.40;;;;;;;;;;5014162;28;20125;-69
2022/02/02 02:18:57;;;;;;;4.55;2.00;;;;;;;;;;5012837;28;20029;-68
2022/02/02 02:21:23;;;;;;;5.28;1.80;;;;;;;;;;5012842;28;20117;-69
2022/02/02 02:23:50;;;;;;;2.90;1.42;;;;;;;;;;5012784;28;20471;-69
2022/02/02 02:26:26;;;;;;;4.68;1.50;;;;;;;;;;5012727;28;20024;-69
2022/02/02 02:31:35;;;;;;;2.78;1.60;;;;;;;;;;5013970;28;20410;-69
2022/02/02 02:58:04;;;;;;;4.03;1.40;;;;;;;;;;5013950;28;20409;-69
2022/02/02 03:34:41;;;;;;;3.95;1.80;;;;;;;;;;5013356;28;20309;-69
2022/02/02 03:53:27;;;;;;;4.63;2.00;;;;;;;;;;5013176;28;20026;-68
2022/02/02 03:58:31;;;;;;;;;;;;;;;;;;5013508;28;19912;-67
2022/02/02 04:01:34;;;;;;;2.70;1.33;;;;;;;;;;5011864;28;19912;-69
2022/02/02 04:06:26;;;;;;;4.38;1.83;;;;;;;;;;5014065;28;20384;-69
2022/02/02 04:08:53;;;;;;;2.60;1.42;;;;;;;;;;5015129;28;20037;-69
2022/02/02 04:11:36;;;;;;;2.78;1.40;;;;;;;;;;5016450;28;20030;-68
2022/02/02 04:55:44;;;;;;;1.35;0.70;;;;;;;;;;5015872;28;20125;-69
2022/02/02 04:58:43;;;;;;;0.68;0.35;;;;;;;;;;5014327;28;20463;-69
2022/02/02 05:06:41;;;;;;;1.80;0.47;;;;;;;;;;5015694;28;20057;-69
2022/02/02 05:22:04;;;;;;;1.65;0.65;;;;;;;;;;5015139;28;20029;-69
2022/02/02 05:53:38;;;;;;;1.73;0.68;;;;;;;;;;5014849;28;20072;-69
2022/02/02 05:56:05;;;;;;;2.90;0.70;;;;;;;;;;5014530;28;20033;-69
2022/02/02 05:58:33;;;;;;;4.45;0.50;;;;;;;;;;5013241;28;20026;-69
2022/02/02 06:01:00;;;;;;;2.92;0.47;;;;;;;;;;5013055;28;20033;-69
2022/02/02 06:03:31;;;;;;;1.45;0.60;;;;;;;;;;5013003;28;20053;-68
2022/02/02 06:05:58;;;;;;;2.55;0.90;;;;;;;;;;4994453;28;20129;-67
2022/02/02 06:08:24;;;;;;;2.80;1.10;;;;;;;;;;4990044;28;20031;-67
2022/02/02 06:10:51;;;;;;;4.03;0.82;;;;;;;;;;4990099;28;20035;-66
2022/02/02 06:13:17;;;;;;;2.50;0.60;;;;;;;;;;4990115;28;20062;-67
2022/02/02 06:15:43;;;;;;;1.60;0.52;;;;;;;;;;4990045;28;20068;-67
2022/02/02 06:18:09;;;;;;;4.57;1.77;;;;;;;;;;4974929;28;20463;-67
2022/02/02 06:20:35;;;;;;;4.55;1.77;;;;;;;;;;4989923;28;20038;-67
2022/02/02 06:23:07;;;;;;;6.18;2.72;;;;;;;;;;4989867;28;20182;-67
2022/02/02 06:25:34;;;;;;;7.00;2.35;;;;;;;;;;4989918;28;20169;-67
2022/02/02 06:28:02;;;;;;;3.13;0.60;;;;;;;;;;4989560;28;20042;-67
2022/02/02 06:30:29;;;;;;;3.47;1.17;;;;;;;;;;4988979;28;20030;-67
2022/02/02 06:33:09;;;;;;;3.33;0.90;;;;;;;;;;4989579;28;20027;-67
2022/02/02 06:35:35;;;;;;;2.13;0.80;;;;;;;;;;4975090;28;20395;-67
2022/02/02 06:38:02;;;;;;;6.78;1.60;;;;;;;;;;4989561;28;20026;-67
2022/02/02 06:40:29;;;;;;;2.08;0.77;;;;;;;;;;4989661;28;20039;-68
2022/02/02 06:42:56;;;;;;;4.90;1.10;;;;;;;;;;4989568;28;20023;-67
2022/02/02 06:45:23;;;;;;;5.07;0.93;;;;;;;;;;4989621;28;20031;-67
2022/02/02 06:47:50;;;;;;;3.67;0.95;;;;;;;;;;4989529;28;20023;-68
2022/02/02 06:50:31;;;;;;;1.95;0.57;;;;;;;;;;4974517;28;20079;-67
2022/02/02 06:53:19;;;;;;;1.67;0.60;;;;;;;;;;4989622;28;20097;-67
2022/02/02 06:56:02;;;;;;;2.15;0.60;;;;;;;;;;4974677;28;20119;-67
2022/02/02 06:58:45;;;;;;;5.15;0.60;;;;;;;;;;4989515;28;20113;-67
2022/02/02 07:01:47;;;;;;;2.80;0.50;;;;;;;;;;5012307;28;20363;-68
2022/02/02 07:04:23;;;;;;;1.33;0.45;;;;;;;;;;5013095;28;20045;-66
2022/02/02 07:09:35;;;;;;;2.05;0.50;;;;;;;;;;5013969;28;20038;-66
2022/02/02 07:15:12;;;;;;;2.72;0.60;;;;;;;;;;5013457;28;20029;-67
2022/02/02 07:20:36;;;;;;;2.38;0.73;;;;;;;;;;4991649;28;20484;-66
2022/02/02 07:23:21;;;;;;;4.18;1.00;;;;;;;;;;5007935;28;20045;-66
2022/02/02 07:26:08;;;;;;;3.95;1.10;;;;;;;;;;5012026;28;20044;-66
2022/02/02 07:28:53;;;;;;;2.75;0.70;;;;;;;;;;5013057;28;20042;-67
2022/02/02 07:33:51;;;;;;;3.80;0.60;;;;;;;;;;5013253;28;20022;-67
2022/02/02 07:36:30;;;;;;;2.35;0.43;;;;;;;;;;5013080;28;20061;-67
2022/02/02 07:39:00;;;;;;;2.17;0.68;;;;;;;;;;5011973;28;20111;-68
2022/02/02 07:41:30;;;;;;;1.98;0.50;;;;;;;;;;5014241;28;20398;-67
2022/02/02 07:44:04;;;;;;;2.00;0.30;;;;;;;;;;5015636;28;20443;-67
2022/02/02 07:46:31;;;;;;;4.05;0.68;;;;;;;;;;5015620;28;20030;-67
2022/02/02 07:48:58;;;;;;;0.70;0.30;;;;;;;;;;5015546;28;20088;-67
2022/02/02 07:51:27;;;;;;;3.88;0.40;;;;;;;;;;5015505;28;20034;-68
2022/02/02 07:53:54;;;;;;;4.93;0.47;;;;;;;;;;5016737;28;20018;-68
2022/02/02 07:56:28;;;;;;;2.33;0.30;;;;;;;;;;5015347;28;20049;-68
2022/02/02 07:59:18;;;;;;;1.65;0.30;;;;;;;;;;5014545;28;20064;-68
2022/02/02 08:01:45;;;;;;;1.92;0.50;;;;;;;;;;5000267;28;20407;-68
2022/02/02 08:04:13;;;;;;;2.78;0.60;;;;;;;;;;5015251;28;20492;-68
2022/02/02 08:06:41;;;;;;;5.75;0.50;;;;;;;;;;5015206;28;20470;-69
2022/02/02 08:09:11;;;;;;;2.80;0.30;;;;;;;;;;5016436;28;20037;-69
2022/02/02 08:11:39;;;;;;;1.13;0.35;;;;;;;;;;5015434;28;20030;-68
2022/02/02 08:14:05;;;;;;;2.25;0.30;;;;;;;;;;5014996;28;20474;-68
2022/02/02 08:16:32;;;;;;;2.03;0.30;;;;;;;;;;5014915;28;20037;-69
2022/02/02 08:18:58;;;;;;;2.50;0.43;;;;;;;;;;5015951;28;20164;-68
2022/02/02 08:21:25;;;;;;;2.97;0.40;;;;;;;;;;5014909;28;20064;-68
2022/02/02 08:23:51;;;;;;;1.40;0.30;;;;;;;;;;5014896;28;20382;-68
2022/02/02 08:26:17;;;;;;;5.60;0.40;;;;;;;;;;5014834;28;20030;-68
2022/02/02 08:28:44;;;;;;;2.88;0.30;;;;;;;;;;5015936;28;20045;-68
2022/02/02 08:31:11;;;;;;;3.03;0.40;;;;;;;;;;5014777;28;20542;-69
2022/02/02 08:33:40;;;;;;;1.35;0.30;;;;;;;;;;5016069;28;20490;-69
2022/02/02 08:36:13;;;;;;;2.33;0.50;;;;;;;;;;5014558;28;20040;-68
2022/02/02 08:39:28;;;;;;;;;;;;;;;;;;5015105;28;20121;-68
2022/02/02 08:41:36;;;;;;;2.17;0.50;;;;;;;;;;5010258;28;19944;-68
2022/02/02 08:44:08;;;;;;;1.00;0.50;;;;;;;;;;5014492;28;20033;-68
2022/02/02 08:46:39;;;;;;;3.20;0.50;;;;;;;;;;5015714;28;20382;-68
2022/02/02 08:49:08;;;;;;;1.17;0.30;;;;;;;;;;5015647;28;20447;-68
2022/02/02 08:51:40;;;;;;;1.98;0.20;;;;;;;;;;5014974;28;20014;-68
2022/02/02 08:54:15;;;;;;;0.70;0.40;;;;;;;;;;5014040;28;20068;-66
2022/02/02 08:59:37;;;;;;;0.40;0.20;;;;;;;;;;5015462;28;20026;-68
2022/02/02 09:02:08;;;;;;;0.57;0.22;;;;;;;;;;5013939;28;20045;-68
2022/02/02 09:07:19;;;;;;;0.82;0.08;;;;;;;;;;5015631;28;20438;-69
2022/02/02 09:23:30;;;;;;;3.95;0.50;;;;;;;;;;5015612;28;20429;-69
2022/02/02 09:36:31;;;;;;;1.33;0.30;;;;;;;;;;5014815;28;20450;-69
2022/02/02 09:39:00;;;;;;;1.00;0.30;;;;;;;;;;5013524;28;20030;-69
2022/02/02 09:43:59;;;;;;;1.67;0.40;;;;;;;;;;5014907;28;20030;-68
2022/02/02 09:46:32;;;;;;;0.95;0.25;;;;;;;;;;5013273;28;20475;-68
2022/02/02 09:49:02;;;;;;;1.42;0.30;;;;;;;;;;5013276;28;20062;-69
2022/02/02 09:51:40;;;;;;;0.77;0.25;;;;;;;;;;5014585;28;20022;-69
2022/02/02 09:54:22;;;;;;;2.83;0.25;;;;;;;;;;5013176;28;20034;-68
2022/02/02 09:59:50;;;;;;;;;;;;;;;;;;5015084;28;20034;-68
2022/02/02 10:13:01;;;;;;;0.60;0.13;;;;;;;;;;5014180;28;20026;-68
2022/02/02 10:15:31;;;;;;;0.40;0.10;;;;;;;;;;5012717;28;20474;-68
2022/02/02 10:17:58;;;;;;;3.70;0.32;;;;;;;;;;5012677;28;20363;-68
2022/02/02 10:20:26;;;;;;;2.13;0.20;;;;;;;;;;5014111;28;20026;-69
2022/02/02 10:22:54;;;;;;;1.90;0.50;;;;;;;;;;5012810;28;20084;-68
2022/02/02 10:25:23;;;;;;;1.63;0.35;;;;;;;;;;5013984;28;20104;-68
2022/02/02 10:27:50;;;;;;;1.30;0.32;;;;;;;;;;5012622;28;20029;-68
2022/02/02 10:30:17;;;;;;;0.43;0.10;;;;;;;;;;5013787;28;20129;-68
2022/02/02 10:32:47;;;;;;;3.20;0.43;;;;;;;;;;5014164;28;20410;-68
2022/02/02 10:35:35;;;;;;;0.38;0.20;;;;;;;;;;5012576;28;20030;-68
2022/02/02 10:38:10;;;;;;;1.80;0.52;;;;;;;;;;5013703;28;20030;-67
2022/02/02 10:41:04;;;;;;;1.10;0.20;;;;;;;;;;5012572;28;20029;-68
2022/02/02 10:43:34;;;;;;;0.80;0.30;;;;;;;;;;5012487;28;20021;-67
2022/02/02 10:46:08;;;;;;;0.88;0.22;;;;;;;;;;5013707;28;20029;-68
2022/02/02 10:48:49;;;;;;;2.67;0.40;;;;;;;;;;5013753;28;20037;-68
2022/02/02 10:51:30;;;;;;;2.33;0.40;;;;;;;;;;5013928;28;20088;-68
2022/02/02 10:54:10;;;;;;;1.77;0.35;;;;;;;;;;5012122;28;20030;-68
2022/02/02 10:59:33;;;;;;;1.63;0.55;;;;;;;;;;5013771;28;20402;-68
2022/02/02 11:07:15;;;;;;;1.70;0.50;;;;;;;;;;5014045;28;20036;-68
2022/02/02 11:09:51;;;;;;;1.52;0.40;;;;;;;;;;5013390;28;20042;-68
2022/02/02 11:12:20;;;;;;;3.20;0.55;;;;;;;;;;5012140;28;20479;-68
2022/02/02 11:14:50;;;;;;;1.88;0.52;;;;;;;;;;5013092;28;20026;-68
2022/02/02 11:17:25;;;;;;;2.80;0.50;;;;;;;;;;5017180;28;20068;-68
2022/02/02 11:19:53;;;;;;;1.13;0.40;;;;;;;;;;5016063;28;20495;-68
2022/02/02 11:22:20;;;;;;;1.45;0.40;;;;;;;;;;5017244;28;20029;-68
2022/02/02 11:24:46;;;;;;;1.40;0.20;;;;;;;;;;5015950;28;20030;-68
2022/02/02 11:27:30;;;;;;;2.33;0.70;;;;;;;;;;5017076;28;20057;-68
2022/02/02 11:29:57;;;;;;;3.03;0.60;;;;;;;;;;5015725;28;20030;-68
2022/02/02 11:32:23;;;;;;;1.67;0.38;;;;;;;;;;5015854;28;20116;-68
2022/02/02 11:35:09;;;;;;;1.48;0.43;;;;;;;;;;5015680;28;20026;-68
2022/02/02 11:38:23;;;;;;;2.53;0.55;;;;;;;;;;5016955;28;20394;-68
2022/02/02 11:41:13;;;;;;;1.77;0.63;;;;;;;;;;4959826;28;20054;-68
2022/02/02 11:43:50;;;;;;;1.08;0.30;;;;;;;;;;5015725;28;20058;-68
2022/02/02 11:46:35;;;;;;;3.53;0.43;;;;;;;;;;5015498;28;20025;-68
2022/02/02 11:49:06;;;;;;;4.38;0.25;;;;;;;;;;5015506;28;20475;-68
2022/02/02 11:51:43;;;;;;;3.20;0.40;;;;;;;;;;5015564;28;20022;-68
2022/02/02 11:54:11;;;;;;;1.30;0.50;;;;;;;;;;5015459;28;20088;-68
2022/02/02 11:56:56;;;;;;;2.33;0.30;;;;;;;;;;5015395;28;20022;-68
2022/02/02 12:00:07;;;;;;;0.80;0.40;;;;;;;;;;5016431;28;20037;-68
2022/02/02 12:02:39;;;;;;;1.67;0.30;;;;;;;;;;5015487;28;20037;-68
2022/02/02 12:05:18;;;;;;;1.48;0.47;;;;;;;;;;5016454;28;20029;-68
2022/02/02 12:08:08;;;;;;;0.90;0.32;;;;;;;;;;5015298;28;20181;-68
2022/02/02 12:11:03;;;;;;;2.33;0.77;;;;;;;;;;5015217;28;20123;-68
2022/02/02 12:57:21;;;;;;;1.98;0.80;;;;;;;;;;5015577;28;20032;-67
2022/02/02 13:02:16;;;;;;;4.82;0.57;;;;;;;;;;5014825;28;20041;-68
2022/02/02 13:04:44;;;;;;;1.60;0.57;;;;;;;;;;5015761;28;20026;-68
2022/02/02 13:07:14;;;;;;;2.50;0.43;;;;;;;;;;5014001;28;20041;-68
2022/02/02 13:09:41;;;;;;;2.20;0.45;;;;;;;;;;5014010;28;20041;-68
2022/02/02 13:12:20;;;;;;;4.30;1.20;;;;;;;;;;5015119;28;20053;-68
2022/02/02 13:18:05;;;;;;;2.53;0.70;;;;;;;;;;5015465;28;20080;-68
2022/02/02 13:26:13;;;;;;;3.22;0.77;;;;;;;;;;5014947;28;20044;-68
2022/02/02 13:28:59;;;;;;;4.50;0.60;;;;;;;;;;5013662;28;20083;-68
2022/02/02 13:31:30;;;;;;;1.85;0.50;;;;;;;;;;5015130;28;20045;-68
2022/02/02 13:34:07;;;;;;;3.55;0.68;;;;;;;;;;5013754;28;20025;-68
2022/02/02 13:37:29;;;;;;;2.15;0.80;;;;;;;;;;4997545;28;20095;-68
2022/02/02 13:42:44;;;;;;;1.75;0.50;;;;;;;;;;4993116;28;20026;-68
2022/02/02 13:53:35;;;;;;;3.60;0.75;;;;;;;;;;5014847;28;20118;-68
2022/02/02 13:57:26;;;;;;;2.92;0.65;;;;;;;;;;5014503;28;20022;-68
2022/02/02 13:59:25;;;;;;;3.85;0.60;;;;;;;;;;5009566;28;20402;-68
2022/02/02 14:02:15;;;;;;;5.07;0.70;;;;;;;;;;5014229;28;20038;-68
2022/02/02 14:10:05;;;;;;;3.85;0.60;;;;;;;;;;5014136;28;20076;-66
2022/02/02 14:31:37;;;;;;;3.47;0.70;;;;;;;;;;5014182;28;20441;-66
2022/02/02 14:34:04;;;;;;;2.38;0.50;;;;;;;;;;5012418;28;20022;-65
2022/02/02 14:36:34;;;;;;;6.22;0.60;;;;;;;;;;5012554;28;20040;-65
2022/02/02 14:39:27;;;;;;;6.82;0.60;;;;;;;;;;5012353;28;20037;-66
2022/02/02 14:41:55;;;;;;;2.25;0.60;;;;;;;;;;5013212;28;20034;-65
2022/02/02 14:44:32;;;;;;;4.07;0.73;;;;;;;;;;5012395;28;20022;-66
2022/02/02 14:47:09;;;;;;;3.47;0.60;;;;;;;;;;5012482;28;20029;-65
2022/02/02 14:49:53;;;;;;;3.35;0.98;;;;;;;;;;5011847;28;20414;-65
2022/02/02 15:06:55;;;;;;;2.83;0.50;;;;;;;;;;5013813;28;20041;-65
2022/02/02 15:25:24;;;;;;;4.10;0.60;;;;;;;;;;5013559;28;20491;-64
2022/02/02 15:27:59;;;;;;;4.03;0.80;;;;;;;;;;5013130;28;20034;-65
2022/02/02 15:32:54;;;;;;;4.43;0.70;;;;;;;;;;5013292;28;20113;-65
2022/02/02 15:35:22;;;;;;;4.05;0.90;;;;;;;;;;5013470;28;20022;-64
2022/02/02 15:40:25;;;;;;;4.40;0.82;;;;;;;;;;5013438;28;20471;-66
2022/02/02 15:59:05;;;;;;;5.85;0.98;;;;;;;;;;5013008;28;20022;-65
2022/02/02 16:02:06;;;;;;;2.83;1.15;;;;;;;;;;5012410;28;20072;-65
2022/02/02 16:04:26;;;;;;;5.63;1.00;;;;;;;;;;5016347;28;20435;-65
2022/02/02 16:06:54;;;;;;;4.63;0.95;;;;;;;;;;5015336;28;20030;-65
2022/02/02 16:11:53;;;;;;;4.90;0.95;;;;;;;;;;5016256;28;20458;-65
2022/02/02 16:14:26;;;;;;;3.58;1.00;;;;;;;;;;5015105;28;20116;-65
2022/02/02 16:17:11;;;;;;;4.68;0.80;;;;;;;;;;5016672;28;20026;-65
2022/02/02 16:24:42;;;;;;;7.18;1.35;;;;;;;;;;5015006;28;20054;-65
2022/02/02 16:25:27;;;;;;;3.22;0.95;;;;;;;;;;5016250;28;20099;-65
2022/02/02 16:36:04;;;;;;;4.35;1.20;;;;;;;;;;5015463;28;20034;-66
2022/02/02 16:38:34;;;;;;;4.95;0.93;;;;;;;;;;5015216;28;20101;-68
2022/02/02 16:41:04;;;;;;;3.50;0.93;;;;;;;;;;5014636;28;20112;-67
2022/02/02 16:43:30;;;;;;;3.50;0.90;;;;;;;;;;5016492;28;20018;-66
2022/02/02 16:45:56;;;;;;;4.82;1.73;;;;;;;;;;5014634;28;20030;-68
2022/02/02 16:48:23;;;;;;;5.45;1.48;;;;;;;;;;5014504;28;20394;-66
2022/02/02 16:50:53;;;;;;;3.13;0.95;;;;;;;;;;5014475;28;20033;-66
2022/02/02 16:55:54;;;;;;;7.03;1.42;;;;;;;;;;5015666;28;20030;-65
2022/02/02 17:31:01;;;;;;;3.90;0.98;;;;;;;;;;5015269;28;20048;-64
2022/02/02 17:33:33;;;;;;;4.05;1.23;;;;;;;;;;5015326;28;20084;-64
2022/02/02 17:38:44;;;;;;;4.28;0.85;;;;;;;;;;5014920;28;20030;-64
2022/02/02 18:03:23;;;;;;;4.13;1.40;;;;;;;;;;5014740;28;20057;-64
2022/02/02 18:19:08;;;;;;;6.15;1.10;;;;;;;;;;5014482;28;20474;-66
2022/02/02 18:21:35;;;;;;;8.88;1.35;;;;;;;;;;5014145;28;20126;-65
2022/02/02 18:24:19;;;;;;;5.95;1.17;;;;;;;;;;5012610;28;20033;-65
2022/02/02 18:26:52;;;;;;;4.38;1.13;;;;;;;;;;5012468;28;20026;-64
2022/02/02 18:29:32;;;;;;;7.25;1.20;;;;;;;;;;5012730;28;20062;-65
2022/02/02 18:32:17;;;;;;;4.70;1.27;;;;;;;;;;5014535;28;20430;-64
2022/02/02 18:34:50;;;;;;;5.07;1.02;;;;;;;;;;5013842;28;20021;-65
2022/02/02 18:43:21;;;;;;;5.80;1.38;;;;;;;;;;5014431;28;20414;-67
2022/02/02 18:54:18;;;;;;;4.13;1.38;;;;;;;;;;5013778;28;20029;-65
2022/02/02 19:02:51;;;;;;;8.15;1.50;;;;;;;;;;5005676;28;20052;-66
2022/02/02 19:05:52;;;;;;;4.10;0.98;;;;;;;;;;5013419;28;20164;-65
2022/02/02 19:55:12;;;;;;;4.75;1.58;;;;;;;;;;5016894;28;20033;-66
2022/02/02 20:04:42;;;;;;;9.98;2.03;;;;;;;;;;5016948;28;20037;-64
2022/02/02 20:07:23;;;;;;;5.75;1.38;;;;;;;;;;5015403;28;20386;-65
2022/02/02 20:09:56;;;;;;;5.28;1.55;;;;;;;;;;5015351;28;20395;-66
2022/02/02 20:12:26;;;;;;;7.85;2.03;;;;;;;;;;5017142;28;20026;-67
2022/02/02 20:14:53;;;;;;;4.20;1.58;;;;;;;;;;5016046;28;20076;-65
2022/02/02 20:17:22;;;;;;;7.95;1.85;;;;;;;;;;5015184;28;20041;-66
2022/02/02 20:19:53;;;;;;;6.50;1.55;;;;;;;;;;5015132;28;20030;-66
2022/02/02 20:22:22;;;;;;;5.05;1.58;;;;;;;;;;5015124;28;20025;-65
2022/02/02 20:25:02;;;;;;;9.55;1.85;;;;;;;;;;5016264;28;20556;-66
2022/02/02 20:27:30;;;;;;;4.55;1.75;;;;;;;;;;5015079;28;20026;-65
2022/02/02 20:29:57;;;;;;;8.98;2.22;;;;;;;;;;5016681;28;20067;-64
2022/02/02 20:32:23;;;;;;;6.53;2.05;;;;;;;;;;5016157;28;20029;-64
2022/02/02 20:34:50;;;;;;;10.18;1.60;;;;;;;;;;5014828;28;20046;-65
2022/02/02 20:37:18;;;;;;;8.23;1.40;;;;;;;;;;5014798;28;20030;-66
2022/02/02 20:39:52;;;;;;;6.80;1.15;;;;;;;;;;5014748;28;20532;-66
2022/02/02 20:42:25;;;;;;;;;;;;;;;;;;5015199;28;20018;-65
2022/02/02 21:03:52;;;;;;;5.18;1.30;;;;;;;;;;5015507;28;20120;-66
2022/02/02 21:11:56;;;;;;;11.32;1.77;;;;;;;;;;5015488;28;20073;-67
2022/02/02 21:14:24;;;;;;;5.40;1.17;;;;;;;;;;5014137;28;20026;-66
2022/02/02 21:16:51;;;;;;;5.55;1.77;;;;;;;;;;5015614;28;20060;-66
2022/02/02 21:19:30;;;;;;;7.75;1.80;;;;;;;;;;5014100;28;20029;-67
2022/02/02 21:22:00;;;;;;;12.32;2.88;;;;;;;;;;5014583;28;20208;-67
2022/02/02 21:29:37;;;;;;;10.48;1.90;;;;;;;;;;5015166;28;20044;-67
2022/02/02 21:32:03;;;;;;;8.90;1.60;;;;;;;;;;5015373;28;20454;-66
2022/02/02 21:34:29;;;;;;;19.83;3.58;;;;;;;;;;5013818;28;20095;-66
2022/02/02 21:37:01;;;;;;;7.05;2.10;;;;;;;;;;5014380;28;20513;-67
2022/02/02 21:39:29;;;;;;;10.73;1.92;;;;;;;;;;5013745;28;20449;-67
2022/02/02 21:41:56;;;;;;;14.90;2.58;;;;;;;;;;5013735;28;20395;-67
2022/02/02 21:44:23;;;;;;;8.93;1.55;;;;;;;;;;5015462;28;20088;-66
2022/02/02 21:46:49;;;;;;;8.52;1.83;;;;;;;;;;5014264;28;20037;-65
2022/02/02 21:49:18;;;;;;;14.10;2.00;;;;;;;;;;5013363;28;20026;-66
2022/02/02 21:51:59;;;;;;;11.95;2.75;;;;;;;;;;5013408;28;20083;-66
2022/02/02 21:54:25;;;;;;;6.80;1.70;;;;;;;;;;5013354;28;20018;-66
2022/02/02 21:56:51;;;;;;;14.82;3.13;;;;;;;;;;5014607;28;20030;-65
2022/02/02 21:59:18;;;;;;;6.85;1.45;;;;;;;;;;5014573;28;20386;-67
2022/02/02 22:01:44;;;;;;;11.93;2.35;;;;;;;;;;5013070;28;20029;-67
2022/02/02 22:04:10;;;;;;;8.52;2.08;;;;;;;;;;5014530;28;20057;-66
2022/02/02 22:06:36;;;;;;;8.45;1.67;;;;;;;;;;5013244;28;20486;-67
2022/02/02 22:09:03;;;;;;;7.75;1.73;;;;;;;;;;5013091;28;20057;-67
2022/02/02 22:11:30;;;;;;;5.88;1.40;;;;;;;;;;5014357;28;20033;-66
2022/02/02 22:14:05;;;;;;;10.50;2.15;;;;;;;;;;5014355;28;20022;-66
2022/02/02 22:16:31;;;;;;;7.25;2.05;;;;;;;;;;5013820;28;20030;-64
2022/02/02 22:18:58;;;;;;;9.52;2.22;;;;;;;;;;5012999;28;20022;-65
2022/02/02 22:21:25;;;;;;;15.05;2.35;;;;;;;;;;5012929;28;20056;-64
2022/02/02 22:23:51;;;;;;;15.52;3.10;;;;;;;;;;5014419;28;20463;-64
2022/02/02 22:26:19;;;;;;;7.22;1.80;;;;;;;;;;5014094;28;20088;-64
2022/02/02 22:28:45;;;;;;;8.32;2.05;;;;;;;;;;5013864;28;20057;-65
2022/02/02 22:31:12;;;;;;;9.32;1.70;;;;;;;;;;5012785;28;20121;-65
2022/02/02 22:33:38;;;;;;;9.30;2.15;;;;;;;;;;5012750;28;20026;-64
2022/02/02 22:36:05;;;;;;;12.60;2.35;;;;;;;;;;5014467;28;20018;-64
2022/02/02 22:38:31;;;;;;;9.68;2.13;;;;;;;;;;5012689;28;20030;-66
2022/02/02 22:40:58;;;;;;;10.88;1.92;;;;;;;;;;5012616;28;20030;-66
2022/02/02 22:43:30;;;;;;;8.82;1.80;;;;;;;;;;5012852;28;20040;-66
2022/02/02 22:45:56;;;;;;;6.30;1.80;;;;;;;;;;5012579;28;20073;-66
2022/02/02 22:48:24;;;;;;;11.23;2.10;;;;;;;;;;5012580;28;20026;-65
2022/02/02 22:50:51;;;;;;;6.13;1.65;;;;;;;;;;5012455;28;20034;-66
2022/02/02 22:53:21;;;;;;;9.60;3.30;;;;;;;;;;5012482;28;20026;-66
2022/02/02 22:55:47;;;;;;;10.38;3.25;;;;;;;;;;5013761;28;20022;-65
2022/02/02 22:58:13;;;;;;;6.85;2.30;;;;;;;;;;5013754;28;20104;-65
2022/02/02 23:00:41;;;;;;;6.78;1.83;;;;;;;;;;5014243;28;20107;-66
2022/02/02 23:03:15;;;;;;;8.77;1.52;;;;;;;;;;5012189;28;20053;-66
2022/02/02 23:05:44;;;;;;;10.55;2.13;;;;;;;;;;5014178;28;20540;-66
2022/02/02 23:08:13;;;;;;;10.40;1.80;;;;;;;;;;5012289;28;20034;-66
2022/02/02 23:10:40;;;;;;;6.47;1.80;;;;;;;;;;5012241;28;20042;-66
2022/02/02 23:13:07;;;;;;;7.88;1.40;;;;;;;;;;5017583;28;20505;-66
2022/02/02 23:18:17;;;;;;;5.13;1.55;;;;;;;;;;5017664;28;20383;-65
2022/02/02 23:20:47;;;;;;;5.45;1.52;;;;;;;;;;5016313;28;20030;-66
2022/02/02 23:23:16;;;;;;;10.35;1.63;;;;;;;;;;5000567;28;20029;-67
2022/02/02 23:25:43;;;;;;;7.03;1.38;;;;;;;;;;5016164;28;20071;-66
2022/02/02 23:28:12;;;;;;;6.95;1.73;;;;;;;;;;5017418;28;20461;-65
2022/02/02 23:30:39;;;;;;;3.58;1.20;;;;;;;;;;5016030;28;20041;-67
2022/02/02 23:33:05;;;;;;;4.75;1.20;;;;;;;;;;5016049;28;20058;-65
2022/02/02 23:35:31;;;;;;;7.00;1.20;;;;;;;;;;5016032;28;20029;-67
2022/02/02 23:37:58;;;;;;;4.13;1.05;;;;;;;;;;5017219;28;20532;-66
2022/02/02 23:40:25;;;;;;;7.13;1.35;;;;;;;;;;5015914;28;20024;-67
2022/02/02 23:42:51;;;;;;;5.95;1.23;;;;;;;;;;5015844;28;20037;-66
2022/02/02 23:45:17;;;;;;;9.55;1.40;;;;;;;;;;5015827;28;20570;-67
2022/02/02 23:47:47;;;;;;;6.03;1.25;;;;;;;;;;5015784;28;20050;-66
2022/02/02 23:50:15;;;;;;;9.00;1.30;;;;;;;;;;5015632;28;20117;-67
2022/02/02 23:55:16;;;;;;;9.77;1.20;;;;;;;;;;5016919;28;20034;-66
2022/02/02 23:58:06;;;;;;;5.47;1.13;;;;;;;;;;5016899;28;20456;-67
